Time;durP1;ratioP1;P1;durP2;ratioP2;P2;SDS_P1;SDS_P2;PMS_P1;PMS_P2;Temp;Humidity;BMP_temperature;BMP_pressure;BME280_temperature;BME280_humidity;BME280_pressure;Samples;Min_cycle;Max_cycle;Signal;HPM_P1;HPM_P2
2023/01/16 00:01:10;;;;;;;1.08;1.08;;;3.20;99.90;;;;;;5019568;28;20219;-73
2023/01/16 00:03:35;;;;;;;1.17;1.08;;;3.10;99.90;;;;;;5018035;28;20220;-73
2023/01/16 00:06:01;;;;;;;1.10;1.10;;;3.10;99.90;;;;;;5018631;28;20211;-74
2023/01/16 00:08:27;;;;;;;1.08;1.08;;;2.90;99.90;;;;;;5019490;28;20631;-74
2023/01/16 00:10:52;;;;;;;1.00;1.00;;;2.90;99.90;;;;;;5024692;28;20215;-74
2023/01/16 00:13:18;;;;;;;2.83;1.30;;;2.90;99.90;;;;;;5023725;28;20205;-74
2023/01/16 00:15:49;;;;;;;0.75;0.75;;;2.80;99.90;;;;;;5008528;28;20193;-74
2023/01/16 00:18:15;;;;;;;1.27;1.20;;;2.80;99.90;;;;;;5016110;28;20185;-72
2023/01/16 00:20:40;;;;;;;0.77;0.77;;;2.70;99.90;;;;;;5019679;28;20195;-70
2023/01/16 00:23:06;;;;;;;0.90;0.90;;;2.60;99.90;;;;;;5019586;28;20212;-72
2023/01/16 00:25:32;;;;;;;1.27;1.17;;;2.50;99.90;;;;;;5015891;28;20177;-72
2023/01/16 00:27:58;;;;;;;1.52;1.45;;;2.50;99.90;;;;;;5028411;28;20639;-72
2023/01/16 00:30:24;;;;;;;1.58;1.52;;;2.40;99.90;;;;;;5011575;28;20272;-70
2023/01/16 00:32:50;;;;;;;2.00;1.50;;;2.30;99.90;;;;;;5015668;28;20255;-72
2023/01/16 00:35:16;;;;;;;1.33;1.33;;;2.10;99.90;;;;;;5021886;28;20322;-71
2023/01/16 00:37:41;;;;;;;1.45;1.42;;;2.00;99.90;;;;;;5017018;28;20213;-71
2023/01/16 00:40:08;;;;;;;1.80;1.42;;;2.10;99.90;;;;;;5012663;28;20541;-72
2023/01/16 00:42:33;;;;;;;1.52;1.42;;;2.00;99.90;;;;;;5019337;28;20587;-72
2023/01/16 00:44:59;;;;;;;4.22;1.65;;;2.00;99.90;;;;;;5020187;28;20355;-72
2023/01/16 00:47:24;;;;;;;3.25;1.20;;;2.00;99.90;;;;;;5016931;28;20188;-72
2023/01/16 00:49:50;;;;;;;1.23;1.23;;;2.00;99.90;;;;;;5024477;28;20187;-72
2023/01/16 00:52:15;;;;;;;1.30;1.17;;;1.90;99.90;;;;;;5017925;28;20177;-72
2023/01/16 00:54:41;;;;;;;1.20;1.15;;;1.90;99.90;;;;;;5025595;28;20189;-72
2023/01/16 00:57:06;;;;;;;1.10;1.10;;;1.80;99.90;;;;;;5019613;28;20750;-73
2023/01/16 00:59:32;;;;;;;1.08;1.08;;;1.80;99.90;;;;;;5025676;28;20188;-73
2023/01/16 01:01:58;;;;;;;2.08;1.20;;;1.70;99.90;;;;;;5015949;28;20211;-73
2023/01/16 01:04:23;;;;;;;1.33;1.13;;;1.70;99.90;;;;;;5016366;28;20197;-73
2023/01/16 01:06:49;;;;;;;1.73;1.20;;;1.60;99.90;;;;;;5014783;28;20717;-73
2023/01/16 01:09:15;;;;;;;1.15;1.15;;;1.60;99.90;;;;;;5018735;28;20185;-73
2023/01/16 01:11:41;;;;;;;1.40;1.27;;;1.60;99.90;;;;;;5020659;28;20182;-73
2023/01/16 01:14:06;;;;;;;1.42;1.10;;;1.60;99.90;;;;;;5017279;28;20208;-73
2023/01/16 01:16:32;;;;;;;1.27;1.20;;;1.70;99.90;;;;;;5021546;28;20622;-73
2023/01/16 01:18:57;;;;;;;2.22;1.30;;;1.60;99.90;;;;;;5023212;28;20191;-73
2023/01/16 01:21:23;;;;;;;1.38;1.27;;;1.70;99.90;;;;;;5027304;28;20175;-72
2023/01/16 01:23:48;;;;;;;1.10;1.10;;;1.70;99.90;;;;;;5023217;28;20192;-72
2023/01/16 01:26:16;;;;;;;3.00;1.92;;;1.80;99.90;;;;;;5026123;28;20181;-72
2023/01/16 01:28:42;;;;;;;1.80;1.65;;;1.80;99.90;;;;;;5016742;28;20189;-73
2023/01/16 01:31:11;;;;;;;2.05;1.88;;;1.80;99.90;;;;;;5018299;28;20184;-72
2023/01/16 01:33:37;;;;;;;2.63;1.90;;;1.70;99.90;;;;;;5010266;28;20209;-72
2023/01/16 01:36:04;;;;;;;3.33;1.83;;;1.80;99.90;;;;;;5016527;28;20173;-71
2023/01/16 01:38:30;;;;;;;2.30;2.08;;;1.60;99.90;;;;;;5024847;28;20255;-72
2023/01/16 01:40:56;;;;;;;4.57;2.28;;;1.70;99.90;;;;;;5019955;28;20173;-73
2023/01/16 01:43:41;;;;;;;3.15;2.38;;;1.60;99.90;;;;;;5013169;28;20212;-72
2023/01/16 01:46:07;;;;;;;4.45;2.53;;;1.50;99.90;;;;;;5023963;28;20271;-73
2023/01/16 01:48:40;;;;;;;2.63;2.05;;;1.50;99.90;;;;;;5013972;28;20181;-72
2023/01/16 01:51:10;;;;;;;2.20;2.00;;;1.50;99.90;;;;;;5023058;28;20198;-72
2023/01/16 01:53:44;;;;;;;2.70;2.13;;;1.50;99.90;;;;;;5029222;28;20223;-73
2023/01/16 01:56:23;;;;;;;2.72;2.13;;;1.50;99.90;;;;;;5026023;28;20278;-71
2023/01/16 01:58:53;;;;;;;2.70;1.95;;;1.50;99.90;;;;;;5011579;28;20185;-72
2023/01/16 02:01:19;;;;;;;1.95;1.85;;;1.50;99.90;;;;;;5026640;28;20271;-72
2023/01/16 02:03:57;;;;;;;4.30;2.38;;;1.40;99.90;;;;;;5019692;28;20295;-72
2023/01/16 02:06:30;;;;;;;3.13;2.25;;;1.40;99.90;;;;;;5018923;28;20694;-71
2023/01/16 02:08:56;;;;;;;3.70;2.17;;;1.40;99.90;;;;;;5020928;28;20648;-72
2023/01/16 02:11:35;;;;;;;2.45;1.90;;;1.50;99.90;;;;;;5014730;28;20172;-72
2023/01/16 02:14:10;;;;;;;1.77;1.70;;;1.50;99.90;;;;;;5014253;28;20270;-71
2023/01/16 02:19:38;;;;;;;3.53;1.80;;;1.30;99.90;;;;;;5022620;28;20242;-72
2023/01/16 02:22:22;;;;;;;2.03;1.85;;;1.30;99.90;;;;;;5009588;28;20211;-72
2023/01/16 02:25:26;;;;;;;1.60;1.50;;;1.40;99.90;;;;;;5017221;28;20176;-72
2023/01/16 02:28:10;;;;;;;1.70;1.52;;;1.40;99.90;;;;;;5019358;28;20184;-72
2023/01/16 02:30:59;;;;;;;1.80;1.70;;;1.50;99.90;;;;;;5017872;28;20177;-72
2023/01/16 02:33:39;;;;;;;1.70;1.60;;;1.50;99.90;;;;;;5009964;28;20303;-72
2023/01/16 02:36:31;;;;;;;2.65;1.77;;;1.60;99.90;;;;;;5017643;28;20182;-73
2023/01/16 02:39:05;;;;;;;2.03;1.73;;;1.50;99.90;;;;;;5008284;28;20263;-73
2023/01/16 02:41:41;;;;;;;2.38;1.60;;;1.50;99.90;;;;;;5023260;28;20191;-73
2023/01/16 02:44:38;;;;;;;1.58;1.50;;;1.50;99.90;;;;;;5018791;28;20193;-73
2023/01/16 02:47:20;;;;;;;2.72;1.90;;;1.60;99.90;;;;;;5011117;28;20184;-72
2023/01/16 02:49:53;;;;;;;2.72;2.42;;;1.60;99.90;;;;;;5017147;28;20655;-72
2023/01/16 02:52:28;;;;;;;2.35;1.98;;;1.60;99.90;;;;;;5021212;28;20261;-72
2023/01/16 02:55:03;;;;;;;2.28;1.80;;;1.60;99.90;;;;;;5010562;28;20177;-73
2023/01/16 02:57:40;;;;;;;1.55;1.45;;;1.60;99.90;;;;;;5008761;28;20177;-73
2023/01/16 03:00:07;;;;;;;2.58;1.70;;;1.60;99.90;;;;;;5014442;28;20864;-73
2023/01/16 03:02:33;;;;;;;3.67;1.42;;;1.70;99.90;;;;;;5035924;28;20267;-72
2023/01/16 03:04:59;;;;;;;1.90;1.80;;;1.60;99.90;;;;;;5011610;28;20213;-73
2023/01/16 03:07:42;;;;;;;1.83;1.73;;;1.60;99.90;;;;;;5021705;28;20213;-73
2023/01/16 03:10:29;;;;;;;1.95;1.85;;;1.70;99.90;;;;;;5037471;28;20253;-73
2023/01/16 03:13:16;;;;;;;1.73;1.63;;;1.70;99.90;;;;;;5025010;28;20235;-73
2023/01/16 03:15:46;;;;;;;1.70;1.60;;;1.70;99.90;;;;;;5020660;28;20735;-72
2023/01/16 03:18:46;;;;;;;2.13;1.95;;;1.70;99.90;;;;;;5025161;28;20192;-73
2023/01/16 03:21:19;;;;;;;1.85;1.75;;;1.80;99.90;;;;;;5019628;28;20205;-72
2023/01/16 03:23:53;;;;;;;1.58;1.48;;;1.80;99.90;;;;;;5018754;28;20217;-73
2023/01/16 03:26:37;;;;;;;1.63;1.52;;;1.70;99.90;;;;;;5013702;28;20663;-73
2023/01/16 03:29:18;;;;;;;2.25;1.73;;;1.70;99.90;;;;;;5009159;28;20218;-73
2023/01/16 03:31:57;;;;;;;1.50;1.40;;;1.60;99.90;;;;;;5017273;28;20185;-73
2023/01/16 03:34:51;;;;;;;1.88;1.65;;;1.40;99.90;;;;;;5018039;28;20236;-72
2023/01/16 03:37:50;;;;;;;2.35;1.50;;;1.40;99.90;;;;;;5016449;28;20211;-73
2023/01/16 03:40:27;;;;;;;1.40;1.25;;;1.40;99.90;;;;;;5017129;28;20196;-73
2023/01/16 03:43:00;;;;;;;1.70;1.60;;;1.40;99.90;;;;;;5006673;28;20213;-73
2023/01/16 03:45:38;;;;;;;2.70;1.50;;;1.30;99.90;;;;;;5019085;28;20703;-73
2023/01/16 03:48:16;;;;;;;2.65;1.52;;;1.20;99.90;;;;;;5024647;28;20184;-71
2023/01/16 03:50:49;;;;;;;2.75;1.40;;;1.10;99.90;;;;;;5019474;28;20221;-72
2023/01/16 03:53:18;;;;;;;2.03;1.63;;;1.10;99.90;;;;;;5014797;28;20622;-72
2023/01/16 03:56:07;;;;;;;1.57;1.30;;;0.90;99.90;;;;;;5023953;28;20216;-73
2023/01/16 03:58:36;;;;;;;1.25;1.25;;;0.90;99.90;;;;;;5013813;28;20189;-73
2023/01/16 04:01:26;;;;;;;1.40;1.30;;;0.80;99.90;;;;;;5014071;28;20196;-72
2023/01/16 04:04:04;;;;;;;1.67;1.58;;;0.80;99.90;;;;;;5006488;28;20275;-72
2023/01/16 04:06:32;;;;;;;1.20;1.20;;;0.70;99.90;;;;;;5025933;28;20655;-72
2023/01/16 04:09:00;;;;;;;1.50;1.40;;;0.60;99.90;;;;;;5022126;28;20540;-73
2023/01/16 04:11:26;;;;;;;3.22;2.03;;;0.60;99.90;;;;;;5024475;28;20197;-72
2023/01/16 04:13:56;;;;;;;2.10;1.70;;;0.60;99.90;;;;;;5021897;28;20196;-72
2023/01/16 04:16:22;;;;;;;2.50;2.30;;;0.40;99.90;;;;;;5028764;28;20180;-72
2023/01/16 04:18:52;;;;;;;2.17;1.50;;;0.40;99.90;;;;;;5031978;28;20625;-72
2023/01/16 04:21:18;;;;;;;2.07;1.80;;;0.30;99.90;;;;;;5019094;28;20189;-72
2023/01/16 04:23:44;;;;;;;2.87;2.00;;;0.30;99.90;;;;;;5023546;28;20638;-72
2023/01/16 04:26:10;;;;;;;3.23;2.03;;;0.20;99.90;;;;;;5026239;28;20181;-72
2023/01/16 04:28:35;;;;;;;1.80;1.70;;;0.20;99.90;;;;;;5018530;28;20256;-73
2023/01/16 04:31:01;;;;;;;2.47;2.20;;;0.20;99.90;;;;;;5023293;28;20189;-72
2023/01/16 04:33:26;;;;;;;1.90;1.80;;;0.10;99.90;;;;;;5015165;28;20305;-73
2023/01/16 04:35:52;;;;;;;2.33;1.73;;;0.10;99.90;;;;;;5014574;28;20661;-72
2023/01/16 04:38:17;;;;;;;1.50;1.50;;;0.20;99.90;;;;;;5005183;28;20251;-73
2023/01/16 04:40:43;;;;;;;1.80;1.70;;;0.20;99.90;;;;;;5014423;28;20192;-72
2023/01/16 04:43:09;;;;;;;1.23;1.23;;;0.20;99.90;;;;;;5007764;28;20222;-73
2023/01/16 04:45:34;;;;;;;2.27;2.17;;;0.20;99.90;;;;;;5008082;28;20792;-73
2023/01/16 04:48:00;;;;;;;1.77;1.67;;;0.10;99.90;;;;;;5004956;28;20317;-74
2023/01/16 04:50:25;;;;;;;1.90;1.80;;;0.10;99.90;;;;;;5012454;28;20257;-74
2023/01/16 04:52:51;;;;;;;1.77;1.67;;;0.10;99.90;;;;;;5012352;28;20215;-72
2023/01/16 04:55:17;;;;;;;1.67;1.67;;;0.10;99.90;;;;;;5015054;28;20185;-72
2023/01/16 04:57:42;;;;;;;1.83;1.73;;;0.00;99.90;;;;;;5024248;28;20177;-72
2023/01/16 05:00:11;;;;;;;2.73;1.93;;;0.00;99.90;;;;;;5007525;28;20193;-73
2023/01/16 05:02:37;;;;;;;1.63;1.57;;;-0.10;99.90;;;;;;5013288;28;20213;-73
2023/01/16 05:05:03;;;;;;;2.63;1.77;;;0.00;99.90;;;;;;5008393;28;20205;-73
2023/01/16 05:07:28;;;;;;;3.77;2.00;;;0.00;99.90;;;;;;5015904;28;20540;-73
2023/01/16 05:09:54;;;;;;;2.30;2.10;;;-0.10;99.90;;;;;;5011211;28;20185;-73
2023/01/16 05:12:20;;;;;;;2.07;1.93;;;-0.10;99.90;;;;;;5006731;28;20240;-74
2023/01/16 05:14:45;;;;;;;2.70;2.27;;;-0.10;99.90;;;;;;5014206;28;20192;-73
2023/01/16 05:17:11;;;;;;;2.17;1.97;;;-0.20;99.90;;;;;;5009220;28;20193;-73
2023/01/16 05:19:37;;;;;;;2.07;1.90;;;-0.20;99.90;;;;;;5012976;28;20188;-73
2023/01/16 05:22:02;;;;;;;4.23;1.77;;;-0.30;99.90;;;;;;5013340;28;20209;-73
2023/01/16 05:24:28;;;;;;;1.73;1.70;;;-0.30;99.90;;;;;;5019925;28;20660;-73
2023/01/16 05:26:53;;;;;;;3.70;2.13;;;-0.30;99.90;;;;;;5007521;28;20177;-73
2023/01/16 05:29:19;;;;;;;1.87;1.77;;;-0.20;99.90;;;;;;5007598;28;20176;-73
2023/01/16 05:31:44;;;;;;;2.13;1.93;;;-0.20;99.90;;;;;;5012213;28;20175;-73
2023/01/16 05:34:10;;;;;;;2.07;1.73;;;-0.20;99.90;;;;;;5008098;28;20196;-73
2023/01/16 05:36:36;;;;;;;1.67;1.67;;;-0.20;99.90;;;;;;5010848;28;20601;-73
2023/01/16 05:39:02;;;;;;;2.27;2.07;;;-0.20;99.90;;;;;;5009798;28;20231;-73
2023/01/16 05:41:27;;;;;;;2.30;1.97;;;-0.20;99.90;;;;;;5011563;28;20461;-72
2023/01/16 05:43:53;;;;;;;3.10;2.27;;;-0.30;99.90;;;;;;5017226;28;20231;-72
2023/01/16 05:46:18;;;;;;;1.90;1.80;;;-0.30;99.90;;;;;;5015660;28;20260;-71
2023/01/16 05:48:44;;;;;;;1.90;1.80;;;-0.30;99.90;;;;;;5012136;28;20184;-72
2023/01/16 05:51:11;;;;;;;2.17;2.00;;;-0.30;99.90;;;;;;5008605;28;20686;-72
2023/01/16 05:53:37;;;;;;;2.27;1.90;;;-0.40;99.90;;;;;;5013177;28;20198;-72
2023/01/16 05:56:07;;;;;;;2.00;1.90;;;-0.40;99.90;;;;;;5003250;28;20260;-72
2023/01/16 05:58:33;;;;;;;2.23;2.03;;;-0.40;99.90;;;;;;5012246;28;20181;-72
2023/01/16 06:00:58;;;;;;;3.27;2.30;;;-0.40;99.90;;;;;;5011884;28;20200;-75
2023/01/16 06:03:24;;;;;;;2.10;2.00;;;-0.40;99.90;;;;;;5012670;28;20567;-73
2023/01/16 06:05:50;;;;;;;2.50;2.30;;;-0.40;99.90;;;;;;5000597;28;20192;-72
2023/01/16 06:08:15;;;;;;;1.97;1.87;;;-0.30;99.90;;;;;;5019208;28;20173;-72
2023/01/16 06:10:41;;;;;;;2.60;2.30;;;-0.40;99.90;;;;;;5011403;28;20678;-72
2023/01/16 06:13:06;;;;;;;2.33;2.23;;;-0.40;99.90;;;;;;5008117;28;20244;-73
2023/01/16 06:15:32;;;;;;;3.07;2.83;;;-0.30;99.90;;;;;;5010594;28;20173;-73
2023/01/16 06:17:58;;;;;;;3.17;2.07;;;-0.30;99.90;;;;;;5009462;28;20177;-73
2023/01/16 06:20:23;;;;;;;3.20;2.37;;;-0.30;99.90;;;;;;5018544;28;20640;-73
2023/01/16 06:22:49;;;;;;;2.57;2.40;;;-0.40;99.90;;;;;;5008844;28;20283;-73
2023/01/16 06:25:15;;;;;;;3.30;2.53;;;-0.40;99.90;;;;;;5007443;28;20316;-73
2023/01/16 06:27:40;;;;;;;4.07;3.13;;;-0.40;99.90;;;;;;5013685;28;20181;-75
2023/01/16 06:30:07;;;;;;;3.60;3.30;;;-0.40;99.90;;;;;;5007888;28;20546;-73
2023/01/16 06:32:32;;;;;;;4.73;3.50;;;-0.40;99.90;;;;;;5011690;28;20192;-73
2023/01/16 06:34:58;;;;;;;4.60;3.20;;;-0.20;99.90;;;;;;5010681;28;20207;-74
2023/01/16 06:37:23;;;;;;;3.97;3.57;;;-0.20;99.90;;;;;;5007910;28;20264;-73
2023/01/16 06:39:49;;;;;;;3.43;2.70;;;-0.10;99.90;;;;;;5010277;28;20669;-73
2023/01/16 06:42:14;;;;;;;2.80;2.27;;;0.00;99.90;;;;;;5006257;28;20248;-73
2023/01/16 06:44:40;;;;;;;2.37;2.27;;;0.00;99.90;;;;;;5011614;28;20235;-72
2023/01/16 06:47:06;;;;;;;3.20;2.63;;;0.00;99.90;;;;;;5010982;28;20184;-72
2023/01/16 06:49:32;;;;;;;3.03;2.70;;;-0.10;99.90;;;;;;5018265;28;20184;-72
2023/01/16 06:51:59;;;;;;;3.20;2.90;;;-0.10;99.90;;;;;;5018141;28;20566;-73
2023/01/16 06:54:25;;;;;;;2.73;2.53;;;-0.10;99.90;;;;;;5015695;28;20197;-74
2023/01/16 06:56:51;;;;;;;3.23;2.93;;;-0.20;99.90;;;;;;5015638;28;20188;-73
2023/01/16 06:59:17;;;;;;;4.03;2.97;;;-0.20;99.90;;;;;;5011203;28;20717;-74
2023/01/16 07:01:42;;;;;;;3.53;3.23;;;-0.30;99.90;;;;;;5011462;28;20205;-73
2023/01/16 07:04:09;;;;;;;3.73;3.10;;;-0.30;99.90;;;;;;5003224;28;20201;-74
2023/01/16 07:06:35;;;;;;;2.67;2.40;;;-0.20;99.90;;;;;;5005923;28;20674;-72
2023/01/16 07:09:01;;;;;;;3.53;2.43;;;-0.10;99.90;;;;;;5033567;28;20188;-72
2023/01/16 07:11:27;;;;;;;3.50;3.17;;;-0.10;99.90;;;;;;5015386;28;20186;-75
2023/01/16 07:22:34;;;;;;;3.57;3.00;;;0.00;99.90;;;;;;5013564;28;20676;-73
2023/01/16 07:24:54;;;;;;;4.43;3.60;;;-0.10;99.90;;;;;;5013063;28;20220;-72
2023/01/16 07:27:20;;;;;;;3.90;3.00;;;-0.10;99.90;;;;;;5012461;28;20581;-72
2023/01/16 07:29:46;;;;;;;3.10;2.83;;;-0.10;99.90;;;;;;5013067;28;20212;-72
2023/01/16 07:32:11;;;;;;;3.27;2.97;;;0.00;99.90;;;;;;5019547;28;20264;-72
2023/01/16 07:34:37;;;;;;;3.17;2.97;;;0.10;99.90;;;;;;5011412;28;20192;-72
2023/01/16 07:37:02;;;;;;;3.17;2.90;;;0.10;99.90;;;;;;5016452;28;20190;-72
2023/01/16 07:39:28;;;;;;;2.90;2.70;;;0.10;99.90;;;;;;5013488;28;20185;-72
2023/01/16 07:41:54;;;;;;;2.73;2.53;;;0.20;99.90;;;;;;5021150;28;20649;-73
2023/01/16 07:44:19;;;;;;;2.83;2.63;;;0.20;99.90;;;;;;5013028;28;20343;-73
2023/01/16 07:46:45;;;;;;;6.63;2.90;;;0.30;99.90;;;;;;5020054;28;20602;-72
2023/01/16 07:49:10;;;;;;;2.53;2.33;;;0.30;99.90;;;;;;5028885;28;20452;-71
2023/01/16 07:51:36;;;;;;;4.47;3.37;;;0.40;99.90;;;;;;5024215;28;20277;-72
2023/01/16 07:54:01;;;;;;;4.20;2.40;;;0.40;99.90;;;;;;5022614;28;20217;-73
2023/01/16 07:56:27;;;;;;;2.87;2.50;;;0.50;99.90;;;;;;5019225;28;20663;-72
2023/01/16 07:58:54;;;;;;;3.00;2.70;;;0.50;99.90;;;;;;5020381;28;20231;-73
2023/01/16 08:01:19;;;;;;;2.60;2.50;;;0.50;99.90;;;;;;5021680;28;20188;-72
2023/01/16 08:03:45;;;;;;;4.27;2.90;;;0.60;99.90;;;;;;5020396;28;20209;-72
2023/01/16 08:06:11;;;;;;;2.97;2.73;;;0.60;99.90;;;;;;5023885;28;20200;-70
2023/01/16 08:08:36;;;;;;;2.30;2.20;;;0.70;99.90;;;;;;5023068;28;20236;-72
2023/01/16 08:11:35;;;;;;;3.50;2.23;;;0.70;99.90;;;;;;5021898;28;20185;-71
2023/01/16 08:13:47;;;;;;;2.40;2.30;;;0.70;99.90;;;;;;5019443;28;20566;-71
2023/01/16 08:16:13;;;;;;;3.70;2.53;;;0.90;99.90;;;;;;5016624;28;20268;-72
2023/01/16 08:18:39;;;;;;;2.50;2.30;;;0.90;99.90;;;;;;5018645;28;20544;-71
2023/01/16 08:21:04;;;;;;;2.20;2.10;;;0.90;99.90;;;;;;5008663;28;20272;-71
2023/01/16 08:23:30;;;;;;;2.53;2.43;;;0.90;99.90;;;;;;5009833;28;20213;-70
2023/01/16 08:25:56;;;;;;;2.53;2.33;;;1.00;99.90;;;;;;5015227;28;20203;-70
2023/01/16 08:28:21;;;;;;;2.97;2.20;;;1.00;99.90;;;;;;5017325;28;20260;-71
2023/01/16 08:30:47;;;;;;;3.50;2.30;;;1.10;99.90;;;;;;5017800;28;20189;-70
2023/01/16 08:33:12;;;;;;;2.30;2.20;;;1.20;99.90;;;;;;5022023;28;20235;-71
2023/01/16 08:35:38;;;;;;;2.30;2.20;;;1.20;99.90;;;;;;5016170;28;20276;-72
2023/01/16 08:38:03;;;;;;;2.33;2.20;;;1.30;99.90;;;;;;5027001;28;20185;-71
2023/01/16 08:40:29;;;;;;;2.22;2.03;;;1.30;99.90;;;;;;5020016;28;20203;-70
2023/01/16 08:51:24;;;;;;;2.40;1.88;;;1.70;99.90;;;;;;5017275;28;20184;-71
2023/01/16 08:53:56;;;;;;;3.00;2.38;;;1.70;99.90;;;;;;5007329;28;20207;-72
2023/01/16 08:56:23;;;;;;;1.90;1.80;;;1.70;99.90;;;;;;5019894;28;20185;-72
2023/01/16 08:58:48;;;;;;;2.40;2.25;;;1.70;99.90;;;;;;5026765;28;21411;-73
2023/01/16 09:01:15;;;;;;;2.70;2.50;;;1.80;99.90;;;;;;5012143;28;20181;-72
2023/01/16 09:03:41;;;;;;;2.13;1.95;;;1.80;99.90;;;;;;5012402;28;20214;-71
2023/01/16 09:06:07;;;;;;;2.17;2.00;;;1.80;99.90;;;;;;5020529;28;20671;-71
2023/01/16 09:08:32;;;;;;;2.17;2.07;;;1.80;99.90;;;;;;5015428;28;20264;-71
2023/01/16 09:13:51;;;;;;;3.67;2.47;;;2.20;99.90;;;;;;5016131;28;20288;-71
2023/01/16 09:16:23;;;;;;;2.05;1.95;;;2.50;99.90;;;;;;5015539;28;20541;-71
2023/01/16 09:18:50;;;;;;;3.13;2.03;;;2.70;99.90;;;;;;5009194;28;20587;-71
2023/01/16 09:21:18;;;;;;;2.58;2.20;;;3.00;99.90;;;;;;5021555;28;20196;-72
2023/01/16 09:23:44;;;;;;;3.03;2.33;;;3.10;99.90;;;;;;5028011;28;20216;-71
2023/01/16 09:26:09;;;;;;;4.38;2.00;;;3.20;99.90;;;;;;5015481;28;20188;-72
2023/01/16 09:28:35;;;;;;;3.30;2.08;;;3.30;99.90;;;;;;5022037;28;20177;-70
2023/01/16 09:31:00;;;;;;;2.47;2.28;;;3.60;99.90;;;;;;5019718;28;20673;-72
2023/01/16 09:33:26;;;;;;;2.10;2.00;;;4.60;99.90;;;;;;5027104;28;20262;-72
2023/01/16 09:35:52;;;;;;;1.60;1.55;;;6.50;99.90;;;;;;5020437;28;20718;-73
2023/01/16 09:38:17;;;;;;;2.05;1.95;;;8.70;99.90;;;;;;5015242;28;20277;-73
2023/01/16 09:40:51;;;;;;;1.70;1.60;;;10.80;99.90;;;;;;5025478;28;20189;-72
2023/01/16 09:43:38;;;;;;;1.50;1.40;;;12.60;99.90;;;;;;5018334;28;20217;-73
2023/01/16 09:46:19;;;;;;;1.55;1.45;;;14.00;95.30;;;;;;5016842;28;20180;-73
2023/01/16 09:48:59;;;;;;;1.70;1.60;;;15.10;89.20;;;;;;5014909;28;20893;-73
2023/01/16 09:51:31;;;;;;;1.60;1.50;;;15.80;82.90;;;;;;5019444;28;20173;-74
2023/01/16 09:59:53;;;;;;;1.30;1.30;;;17.80;69.80;;;;;;5018796;28;20223;-75
2023/01/16 10:02:32;;;;;;;3.20;1.42;;;18.00;67.50;;;;;;5022267;28;20686;-74
2023/01/16 10:04:59;;;;;;;1.60;1.50;;;18.40;66.10;;;;;;5010442;28;20199;-73
2023/01/16 10:07:59;;;;;;;1.80;1.67;;;18.80;64.20;;;;;;5012398;28;20185;-73
2023/01/16 10:10:43;;;;;;;1.63;1.52;;;19.20;62.50;;;;;;5006981;28;20173;-73
2023/01/16 10:13:31;;;;;;;1.35;1.25;;;19.90;59.40;;;;;;5016216;28;20237;-76
2023/01/16 10:16:19;;;;;;;1.45;1.35;;;20.20;58.20;;;;;;5014706;28;20192;-75
2023/01/16 10:18:51;;;;;;;1.58;1.48;;;20.10;57.50;;;;;;5014428;28;20192;-76
2023/01/16 10:21:23;;;;;;;1.40;1.30;;;20.40;57.30;;;;;;5014514;28;20259;-76
2023/01/16 10:24:19;;;;;;;1.70;1.60;;;20.90;56.20;;;;;;5016680;28;20216;-76
2023/01/16 10:27:12;;;;;;;1.40;1.30;;;21.40;55.50;;;;;;5014679;28;20181;-77
2023/01/16 10:29:58;;;;;;;1.75;1.65;;;21.90;54.00;;;;;;5016122;28;20256;-74
2023/01/16 10:32:41;;;;;;;1.75;1.65;;;22.50;52.50;;;;;;5023798;28;20180;-75
2023/01/16 10:35:24;;;;;;;1.52;1.42;;;22.60;52.80;;;;;;5003849;28;20184;-75
2023/01/16 10:37:51;;;;;;;1.45;1.25;;;22.30;52.20;;;;;;5001820;28;20182;-75
2023/01/16 10:40:24;;;;;;;1.58;1.48;;;22.50;51.90;;;;;;5008047;28;20258;-75
2023/01/16 10:51:15;;;;;;;1.70;1.42;;;23.90;48.30;;;;;;5005351;28;20229;-78
2023/01/16 10:53:41;;;;;;;2.38;1.60;;;24.10;48.30;;;;;;5008703;28;20209;-77
2023/01/16 10:56:07;;;;;;;1.30;1.20;;;24.50;48.30;;;;;;5013096;28;20189;-77
2023/01/16 10:58:39;;;;;;;1.77;1.33;;;24.90;47.60;;;;;;5010257;28;20181;-75
2023/01/16 11:01:12;;;;;;;1.85;1.50;;;24.70;46.30;;;;;;5012095;28;20273;-74
2023/01/16 11:03:53;;;;;;;1.38;1.27;;;24.70;46.10;;;;;;5016299;28;20220;-77
2023/01/16 11:06:21;;;;;;;1.80;1.70;;;24.90;46.30;;;;;;5019650;28;20251;-76
2023/01/16 11:09:13;;;;;;;1.50;1.40;;;25.10;45.70;;;;;;5022344;28;20191;-75
2023/01/16 11:20:18;;;;;;;2.25;1.40;;;25.80;44.20;;;;;;5009305;28;20197;-78
2023/01/16 11:22:50;;;;;;;2.28;1.38;;;25.60;43.60;;;;;;5010796;28;20212;-78
2023/01/16 11:25:18;;;;;;;1.70;1.60;;;24.60;44.80;;;;;;5004625;28;20185;-76
2023/01/16 11:27:44;;;;;;;1.30;1.30;;;24.50;45.30;;;;;;5022923;28;20185;-75
2023/01/16 11:30:26;;;;;;;1.30;1.17;;;24.60;45.00;;;;;;5016579;28;20185;-76
2023/01/16 11:32:54;;;;;;;1.52;1.42;;;25.00;45.00;;;;;;5016494;28;20216;-76
2023/01/16 11:35:25;;;;;;;1.05;1.05;;;25.40;43.90;;;;;;5012178;28;20189;-76
2023/01/16 11:37:52;;;;;;;1.17;1.17;;;25.70;43.90;;;;;;5016548;28;20220;-76
2023/01/16 11:40:23;;;;;;;1.45;1.38;;;25.30;42.90;;;;;;5012478;28;20607;-76
2023/01/16 11:46:05;;;;;;;1.35;1.35;;;22.40;45.40;;;;;;5015003;28;20196;-76
2023/01/16 11:48:39;;;;;;;1.55;1.45;;;20.00;48.00;;;;;;5011811;28;20680;-74
2023/01/16 11:51:13;;;;;;;1.58;1.42;;;18.20;50.60;;;;;;5011530;28;20274;-74
2023/01/16 11:53:39;;;;;;;1.65;1.55;;;17.50;52.90;;;;;;5013986;28;20674;-74
2023/01/16 11:56:40;;;;;;;1.35;1.35;;;17.30;53.00;;;;;;5017022;28;20247;-75
2023/01/16 11:59:24;;;;;;;1.08;1.08;;;16.30;53.60;;;;;;5015338;28;20187;-75
2023/01/16 12:02:21;;;;;;;1.25;1.13;;;15.00;56.10;;;;;;5014848;28;20186;-75
2023/01/16 12:08:07;;;;;;;1.23;1.20;;;15.00;56.80;;;;;;5021252;28;20195;-75
2023/01/16 12:10:46;;;;;;;1.48;1.38;;;15.20;57.10;;;;;;5015659;28;20239;-75
2023/01/16 12:16:09;;;;;;;1.00;1.00;;;15.70;56.80;;;;;;5013848;28;20196;-74
2023/01/16 12:18:52;;;;;;;1.40;1.27;;;15.30;57.30;;;;;;5020472;28;20192;-75
2023/01/16 12:21:29;;;;;;;1.10;1.10;;;14.80;57.60;;;;;;5010840;28;20177;-75
2023/01/16 12:24:33;;;;;;;1.63;1.20;;;14.00;59.00;;;;;;5022805;28;20224;-75
2023/01/16 12:27:30;;;;;;;1.33;1.33;;;13.40;61.10;;;;;;5009026;28;20260;-74
2023/01/16 12:30:14;;;;;;;1.13;1.00;;;12.80;62.90;;;;;;5010630;28;20551;-74
2023/01/16 12:33:13;;;;;;;1.40;1.25;;;12.40;64.40;;;;;;5015430;28;20244;-74
2023/01/16 12:36:01;;;;;;;1.55;1.20;;;12.00;66.20;;;;;;5016348;28;20198;-74
2023/01/16 12:38:35;;;;;;;2.85;1.30;;;11.90;67.20;;;;;;5013487;28;20729;-74
2023/01/16 12:44:30;;;;;;;0.85;0.85;;;12.00;66.90;;;;;;5009349;28;20278;-74
2023/01/16 12:47:20;;;;;;;1.05;1.05;;;12.30;66.40;;;;;;5010890;28;20176;-74
2023/01/16 12:49:45;;;;;;;1.10;1.10;;;13.00;65.30;;;;;;5012712;28;20180;-74
2023/01/16 12:52:26;;;;;;;3.10;1.25;;;13.30;64.40;;;;;;5010019;28;20185;-74
2023/01/16 12:55:24;;;;;;;1.02;1.00;;;13.10;64.60;;;;;;5008946;28;20621;-74
2023/01/16 12:58:23;;;;;;;0.98;0.98;;;12.80;65.30;;;;;;5010665;28;20213;-75
2023/01/16 13:01:13;;;;;;;1.20;1.10;;;12.40;65.70;;;;;;5008082;28;20227;-75
2023/01/16 13:03:48;;;;;;;1.10;1.10;;;12.10;67.50;;;;;;5003575;28;20217;-75
2023/01/16 13:06:22;;;;;;;1.33;1.23;;;12.00;67.80;;;;;;5008744;28;20607;-75
2023/01/16 13:09:00;;;;;;;1.25;1.05;;;11.70;68.20;;;;;;5007056;28;20196;-75
2023/01/16 13:14:23;;;;;;;1.05;1.05;;;11.20;70.40;;;;;;5007432;28;20272;-75
2023/01/16 13:17:00;;;;;;;1.85;1.10;;;10.80;71.30;;;;;;5013400;28;20686;-75
2023/01/16 13:19:29;;;;;;;1.17;1.08;;;10.40;72.70;;;;;;5013082;28;20173;-75
2023/01/16 13:22:03;;;;;;;2.17;1.13;;;10.30;73.70;;;;;;5018199;28;20574;-75
2023/01/16 13:24:42;;;;;;;0.80;0.80;;;10.30;74.20;;;;;;5012337;28;20208;-75
2023/01/16 13:27:17;;;;;;;1.23;1.23;;;10.20;74.80;;;;;;5007952;28;20220;-77
2023/01/16 13:29:52;;;;;;;0.90;0.90;;;10.20;75.20;;;;;;5013402;28;20185;-76
2023/01/16 13:32:30;;;;;;;0.93;0.93;;;10.10;75.60;;;;;;5006617;28;20234;-75
2023/01/16 13:35:20;;;;;;;1.00;1.00;;;10.10;76.20;;;;;;5006247;28;20663;-75
2023/01/16 13:38:14;;;;;;;1.17;1.10;;;10.20;75.70;;;;;;5012837;28;20191;-75
2023/01/16 13:40:42;;;;;;;1.75;1.45;;;10.30;76.60;;;;;;5012300;28;20188;-75
2023/01/16 13:46:01;;;;;;;0.95;0.93;;;10.00;78.60;;;;;;5006355;28;20183;-75
2023/01/16 13:48:33;;;;;;;1.30;1.30;;;9.90;80.30;;;;;;5009317;28;20188;-75
2023/01/16 13:51:12;;;;;;;2.42;1.30;;;9.80;81.20;;;;;;5005875;28;20170;-75
2023/01/16 13:53:40;;;;;;;1.00;1.00;;;9.60;81.70;;;;;;5006738;28;20268;-75
2023/01/16 13:56:20;;;;;;;1.70;1.17;;;9.30;82.40;;;;;;5001987;28;20637;-75
2023/01/16 13:58:53;;;;;;;1.50;1.40;;;9.10;84.00;;;;;;5017695;28;20185;-75
2023/01/16 14:01:57;;;;;;;1.30;1.20;;;8.90;85.50;;;;;;5011480;28;20761;-75
2023/01/16 14:04:23;;;;;;;0.90;0.90;;;8.80;86.90;;;;;;4993656;28;20624;-75
2023/01/16 14:10:07;;;;;;;1.35;1.25;;;8.50;88.30;;;;;;4973825;28;20201;-75
2023/01/16 14:12:40;;;;;;;1.58;1.23;;;8.40;89.50;;;;;;5009850;28;20500;-75
2023/01/16 14:18:14;;;;;;;1.17;1.05;;;8.00;89.60;;;;;;5003668;28;20224;-75
2023/01/16 14:20:50;;;;;;;1.52;1.17;;;7.90;89.50;;;;;;5006803;28;20732;-75
2023/01/16 14:26:05;;;;;;;1.30;1.20;;;7.60;90.80;;;;;;5006612;28;20667;-75
2023/01/16 14:28:32;;;;;;;1.00;1.00;;;7.50;91.20;;;;;;5007729;28;20260;-75